Time;durP1;ratioP1;P1;durP2;ratioP2;P2;SDS_P1;SDS_P2;PMS_P1;PMS_P2;Temp;Humidity;BMP_temperature;BMP_pressure;BME280_temperature;BME280_humidity;BME280_pressure;Samples;Min_cycle;Max_cycle;Signal;HPM_P1;HPM_P2
2021/05/27 00:00:10;;;;;;;0.70;0.63;;;19.50;45.50;;;22.99;31.19;100352.91;5114965;28;20050;-71
2021/05/27 00:02:36;;;;;;;1.05;0.60;;;19.40;45.50;;;23.02;31.20;100358.00;5115348;28;20047;-71
2021/05/27 00:05:07;;;;;;;0.70;0.60;;;19.40;45.60;;;23.00;31.39;100354.56;5133697;27;20463;-71
2021/05/27 00:07:34;;;;;;;0.83;0.80;;;19.40;45.60;;;23.02;31.33;100351.78;5114977;28;20045;-71
2021/05/27 00:10:00;;;;;;;0.60;0.60;;;19.40;45.60;;;22.98;31.32;100347.69;5114858;28;20054;-71
2021/05/27 00:12:26;;;;;;;0.60;0.60;;;19.40;45.60;;;23.00;31.28;100351.06;5114809;28;20039;-71
2021/05/27 00:14:52;;;;;;;0.70;0.65;;;19.40;45.60;;;23.00;31.40;100348.41;5115253;28;20061;-71
2021/05/27 00:17:18;;;;;;;1.33;0.57;;;19.40;45.60;;;22.99;31.32;100350.22;5132005;28;20402;-71
2021/05/27 00:19:44;;;;;;;0.77;0.77;;;19.40;45.60;;;22.99;31.40;100354.69;5131995;28;20479;-71
2021/05/27 00:22:11;;;;;;;0.60;0.60;;;19.40;45.60;;;22.98;31.36;100351.19;5115242;28;20051;-71
2021/05/27 00:24:38;;;;;;;0.60;0.60;;;19.40;45.70;;;22.94;31.32;100341.75;5114754;28;20085;-71
2021/05/27 00:27:07;;;;;;;0.60;0.60;;;19.40;45.60;;;22.92;31.34;100341.88;5115131;28;20046;-71
2021/05/27 00:29:37;;;;;;;0.50;0.50;;;19.40;45.70;;;22.97;31.46;100349.50;5131852;28;20051;-71
2021/05/27 00:32:03;;;;;;;0.60;0.60;;;19.40;45.70;;;22.90;31.50;100342.94;5097911;28;20478;-71
2021/05/27 00:34:29;;;;;;;0.65;0.65;;;19.40;45.70;;;22.93;31.36;100346.22;5132962;28;20063;-71
2021/05/27 00:36:54;;;;;;;0.60;0.60;;;19.40;45.70;;;22.94;31.45;100349.75;5097384;28;20296;-71
2021/05/27 00:39:20;;;;;;;0.73;0.70;;;19.40;45.70;;;22.93;31.47;100351.53;5131582;28;20063;-71
2021/05/27 00:41:46;;;;;;;0.55;0.55;;;19.40;45.70;;;22.92;31.50;100347.19;5114547;28;20146;-71
2021/05/27 00:44:27;;;;;;;0.50;0.50;;;19.30;45.70;;;22.90;31.48;100348.28;5114557;28;20051;-71
2021/05/27 00:46:55;;;;;;;0.60;0.60;;;19.40;45.70;;;22.92;31.35;100351.66;5097459;28;20051;-71
2021/05/27 00:49:21;;;;;;;0.70;0.70;;;19.40;45.70;;;22.91;31.46;100350.81;5132530;28;20387;-71
2021/05/27 00:51:49;;;;;;;1.27;0.73;;;19.40;45.80;;;22.87;31.54;100349.38;5114350;28;20051;-71
2021/05/27 00:54:16;;;;;;;0.52;0.50;;;19.30;45.70;;;22.88;31.52;100352.88;5134995;28;20059;-71
2021/05/27 00:56:43;;;;;;;1.15;0.60;;;19.30;45.80;;;22.86;31.44;100345.00;5118204;28;20126;-71
2021/05/27 00:59:10;;;;;;;0.43;0.43;;;19.30;45.70;;;22.83;31.53;100337.25;5100757;28;20047;-71
2021/05/27 01:01:36;;;;;;;0.40;0.40;;;19.30;45.80;;;22.86;31.53;100347.66;5100815;28;20047;-71
2021/05/27 01:04:03;;;;;;;0.50;0.50;;;19.30;45.80;;;22.87;31.48;100349.38;5100934;28;20055;-71
2021/05/27 01:06:29;;;;;;;0.85;0.70;;;19.30;45.80;;;22.87;31.56;100351.16;5117671;28;20050;-71
2021/05/27 01:08:56;;;;;;;0.65;0.60;;;19.30;45.80;;;22.88;31.37;100352.88;5117931;28;20130;-71
2021/05/27 01:11:23;;;;;;;0.65;0.65;;;19.30;45.80;;;22.85;31.55;100347.78;5100647;28;20440;-71
2021/05/27 01:13:49;;;;;;;0.65;0.65;;;19.30;45.80;;;22.87;31.47;100354.72;5134538;27;20379;-71
2021/05/27 01:16:21;;;;;;;0.55;0.50;;;19.30;45.90;;;22.80;31.47;100336.63;5117510;28;20062;-71
2021/05/27 01:18:47;;;;;;;1.48;0.70;;;19.30;45.90;;;22.85;31.53;100342.47;5117591;28;20138;-71
2021/05/27 01:21:15;;;;;;;0.57;0.55;;;19.30;45.90;;;22.84;31.67;100352.28;5100417;28;20053;-71
2021/05/27 01:23:41;;;;;;;0.57;0.50;;;19.30;45.90;;;22.84;31.58;100359.44;5117492;28;20490;-71
2021/05/27 01:26:12;;;;;;;0.65;0.60;;;19.30;45.90;;;22.85;31.60;100353.13;5100946;28;20053;-71
2021/05/27 01:28:41;;;;;;;0.57;0.55;;;19.30;45.90;;;22.83;31.53;100352.41;5118044;28;20100;-71
2021/05/27 01:31:09;;;;;;;0.68;0.60;;;19.30;46.00;;;22.82;31.69;100358.69;5134613;28;20050;-71
2021/05/27 01:33:38;;;;;;;0.60;0.60;;;19.30;46.00;;;22.81;31.63;100357.00;5117430;28;20039;-71
2021/05/27 01:36:09;;;;;;;0.40;0.40;;;19.20;45.90;;;22.80;31.66;100357.97;5118063;28;20047;-70
2021/05/27 01:38:35;;;;;;;0.50;0.50;;;19.20;45.90;;;22.80;31.57;100358.81;5117162;28;20051;-69
2021/05/27 01:41:03;;;;;;;0.70;0.70;;;19.20;46.00;;;22.80;31.48;100358.81;5117353;28;20054;-69
2021/05/27 01:43:31;;;;;;;0.60;0.60;;;19.20;46.00;;;22.79;31.59;100354.47;5134226;28;20036;-70
2021/05/27 01:45:58;;;;;;;0.60;0.60;;;19.20;46.00;;;22.76;31.51;100358.19;5134151;28;20051;-69
2021/05/27 01:48:24;;;;;;;0.70;0.70;;;19.20;46.00;;;22.76;31.79;100354.69;5117136;28;20096;-70
2021/05/27 01:50:50;;;;;;;0.40;0.40;;;19.20;46.00;;;22.79;31.49;100359.78;5134060;27;20055;-70
2021/05/27 01:53:21;;;;;;;1.40;0.82;;;19.20;46.10;;;22.76;31.70;100363.53;5118008;28;20055;-70
2021/05/27 01:55:49;;;;;;;0.80;0.60;;;19.20;46.00;;;22.79;31.58;100356.25;5116796;28;20124;-69
2021/05/27 01:58:18;;;;;;;0.50;0.50;;;19.20;46.00;;;22.81;31.74;100362.34;5116881;28;20045;-69
2021/05/27 02:00:45;;;;;;;0.55;0.50;;;19.20;46.10;;;22.74;31.70;100349.47;5117252;28;20074;-70
2021/05/27 02:03:13;;;;;;;0.63;0.63;;;19.20;46.10;;;22.80;31.49;100355.28;5133339;27;20394;-70
2021/05/27 02:05:41;;;;;;;0.60;0.60;;;19.20;46.00;;;22.79;31.69;100361.59;5116692;28;20043;-70
2021/05/27 02:08:10;;;;;;;0.93;0.70;;;19.20;46.10;;;22.79;31.56;100359.78;5116868;28;20058;-69
2021/05/27 02:10:47;;;;;;;0.55;0.55;;;19.20;46.10;;;22.79;31.59;100359.78;5135100;27;20058;-69
2021/05/27 02:13:13;;;;;;;0.55;0.47;;;19.20;46.10;;;22.78;31.53;100355.41;5133809;28;20051;-70
2021/05/27 02:15:42;;;;;;;0.40;0.40;;;19.20;46.10;;;22.76;31.61;100355.53;5117605;28;20102;-70
2021/05/27 02:18:08;;;;;;;0.60;0.60;;;19.20;46.10;;;22.78;31.65;100359.91;5099600;28;20517;-69
2021/05/27 02:20:37;;;;;;;0.68;0.60;;;19.20;46.10;;;22.78;31.83;100365.22;5117478;28;20453;-70
2021/05/27 02:23:03;;;;;;;0.50;0.50;;;19.20;46.10;;;22.73;31.73;100350.44;5117016;28;20047;-70
2021/05/27 02:25:44;;;;;;;0.60;0.60;;;19.20;46.10;;;22.78;31.65;100357.25;5134568;28;20047;-70
2021/05/27 02:28:19;;;;;;;0.70;0.70;;;19.20;46.10;;;22.77;31.86;100361.72;5117470;28;20047;-69
2021/05/27 02:30:46;;;;;;;0.50;0.50;;;19.20;46.10;;;22.73;31.70;100358.44;5116931;28;20043;-70
2021/05/27 02:33:15;;;;;;;0.75;0.60;;;19.20;46.10;;;22.74;31.71;100349.47;5116757;28;20039;-70
2021/05/27 02:35:41;;;;;;;1.15;0.77;;;19.20;46.20;;;22.73;31.80;100355.75;5116347;28;20039;-69
2021/05/27 02:38:08;;;;;;;1.38;0.52;;;19.10;46.10;;;22.71;31.75;100357.69;5116272;28;20108;-69
2021/05/27 02:40:37;;;;;;;0.68;0.60;;;19.10;46.20;;;22.69;31.73;100358.81;5135055;27;20046;-70
2021/05/27 02:43:04;;;;;;;0.65;0.50;;;19.10;46.20;;;22.72;31.77;100355.88;5116280;28;20104;-69
2021/05/27 02:45:32;;;;;;;0.77;0.60;;;19.20;46.30;;;22.71;31.82;100346.19;5133299;28;20099;-70
2021/05/27 02:47:58;;;;;;;0.50;0.50;;;19.20;46.30;;;22.74;31.89;100351.31;5133442;28;20176;-69
2021/05/27 02:50:26;;;;;;;0.45;0.45;;;19.20;46.20;;;22.79;31.70;100349.13;5116720;28;20055;-70
2021/05/27 02:52:54;;;;;;;0.68;0.68;;;19.30;46.20;;;22.82;31.75;100346.22;5116196;28;20496;-69
2021/05/27 02:55:20;;;;;;;0.60;0.50;;;19.30;46.00;;;22.87;31.60;100349.38;5115951;28;20049;-69
2021/05/27 02:57:47;;;;;;;0.60;0.60;;;19.30;45.90;;;22.93;31.72;100350.69;5116687;28;20124;-69
2021/05/27 03:00:14;;;;;;;0.50;0.50;;;19.40;45.90;;;22.97;31.52;100351.31;5133364;28;20051;-70
2021/05/27 03:02:54;;;;;;;0.50;0.50;;;19.40;46.50;;;22.99;31.40;100349.34;5118577;28;20043;-70
2021/05/27 03:05:21;;;;;;;0.70;0.60;;;19.50;45.70;;;23.05;31.33;100354.22;5132851;28;20436;-69
2021/05/27 03:07:48;;;;;;;0.90;0.68;;;19.50;45.60;;;23.08;31.55;100362.00;5115839;28;20051;-69
2021/05/27 03:10:17;;;;;;;1.50;0.60;;;19.60;45.60;;;23.10;31.54;100344.94;5116777;28;20508;-70
2021/05/27 03:12:44;;;;;;;0.60;0.60;;;19.60;45.50;;;23.14;31.44;100356.22;5116202;28;20066;-69
2021/05/27 03:15:10;;;;;;;0.50;0.50;;;19.70;45.40;;;23.18;31.21;100354.16;5115193;28;20047;-70
2021/05/27 03:17:38;;;;;;;0.60;0.60;;;19.70;45.30;;;23.21;31.45;100352.06;5099538;28;20113;-69
2021/05/27 03:20:06;;;;;;;0.60;0.60;;;19.70;45.20;;;23.23;31.37;100354.63;5115745;28;20513;-70
2021/05/27 03:22:32;;;;;;;0.50;0.50;;;19.80;45.20;;;23.27;31.25;100351.59;5115562;28;20043;-70
2021/05/27 03:25:00;;;;;;;0.40;0.40;;;19.80;45.10;;;23.32;31.23;100364.53;5132530;28;20509;-70
2021/05/27 03:27:26;;;;;;;0.60;0.60;;;19.80;45.00;;;23.34;31.22;100353.75;5115439;28;20047;-68
2021/05/27 03:29:52;;;;;;;0.60;0.60;;;19.90;45.00;;;23.36;31.33;100358.00;5116094;28;20051;-70
2021/05/27 03:32:21;;;;;;;0.70;0.60;;;19.90;45.00;;;23.40;31.13;100355.94;5116283;28;20079;-70
2021/05/27 03:34:47;;;;;;;0.40;0.40;;;19.90;44.90;;;23.43;31.05;100359.19;5133877;27;20555;-70
2021/05/27 03:37:12;;;;;;;0.68;0.60;;;19.90;44.90;;;23.45;31.01;100357.25;5132299;28;20058;-70
2021/05/27 03:40:09;;;;;;;0.50;0.50;;;19.90;44.90;;;23.45;30.83;100351.91;5115276;28;20142;-70
2021/05/27 03:42:28;;;;;;;0.60;0.60;;;19.90;44.90;;;23.48;30.85;100359.69;5132229;28;20043;-70
2021/05/27 03:44:54;;;;;;;0.60;0.60;;;19.90;44.90;;;23.47;30.93;100346.47;5116027;28;20138;-69
2021/05/27 03:47:22;;;;;;;0.60;0.57;;;19.90;44.90;;;23.46;30.99;100352.78;5115416;28;20126;-70
2021/05/27 03:49:48;;;;;;;0.70;0.50;;;19.90;44.90;;;23.48;30.96;100349.00;5115244;28;20142;-70
2021/05/27 03:52:14;;;;;;;0.57;0.57;;;19.90;45.00;;;23.49;31.13;100356.06;5115102;28;20047;-70
2021/05/27 03:54:45;;;;;;;0.65;0.50;;;19.90;45.00;;;23.43;30.71;100353.88;5098490;28;20043;-70
2021/05/27 03:57:12;;;;;;;0.50;0.50;;;19.90;45.00;;;23.46;30.83;100356.28;5132134;28;20078;-69
2021/05/27 04:02:31;;;;;;;0.60;0.60;;;19.80;45.10;;;23.43;30.85;100356.53;5118812;28;20390;-70
2021/05/27 04:08:05;;;;;;;0.60;0.60;;;19.70;45.20;;;23.37;30.92;100350.84;5133628;28;20047;-70
2021/05/27 04:10:31;;;;;;;0.50;0.50;;;19.70;45.30;;;23.38;31.18;100364.06;5115369;28;20134;-70
2021/05/27 04:12:57;;;;;;;0.40;0.40;;;19.70;45.40;;;23.30;30.93;100359.34;5132003;27;20440;-70
2021/05/27 04:15:28;;;;;;;0.50;0.50;;;19.60;45.40;;;23.30;31.07;100362.03;5115190;28;20054;-70
2021/05/27 04:17:56;;;;;;;0.73;0.60;;;19.60;45.40;;;23.26;31.24;100357.06;5115414;28;20066;-69
2021/05/27 04:20:48;;;;;;;0.50;0.50;;;19.60;45.50;;;23.19;31.25;100355.81;5114731;28;20040;-70
2021/05/27 04:23:37;;;;;;;0.85;0.60;;;19.60;45.50;;;23.18;30.98;100362.97;5114739;28;20066;-70
2021/05/27 04:26:09;;;;;;;0.60;0.60;;;19.50;45.50;;;23.16;31.18;100369.41;5132146;27;20126;-70
2021/05/27 04:28:37;;;;;;;0.40;0.40;;;19.50;45.70;;;23.15;31.07;100367.72;5100446;28;20047;-70
2021/05/27 04:31:11;;;;;;;0.70;0.60;;;19.50;45.70;;;23.08;31.28;100362.84;5118988;28;20039;-69
2021/05/27 04:33:43;;;;;;;1.35;0.60;;;19.50;45.80;;;23.08;31.22;100368.19;5119610;28;20063;-70
2021/05/27 04:36:14;;;;;;;0.60;0.60;;;19.40;45.80;;;23.04;31.33;100364.03;5137045;28;20043;-70
2021/05/27 04:38:40;;;;;;;;;;;19.40;45.80;;;23.14;31.23;100377.53;5101895;28;20134;-70
2021/05/27 04:41:06;;;;;;;0.70;0.55;;;19.40;45.90;;;23.05;31.38;100367.56;5135312;28;19923;-70
2021/05/27 04:43:34;;;;;;;0.60;0.60;;;19.40;45.90;;;23.04;31.49;100376.53;5118109;28;20398;-69
2021/05/27 04:46:01;;;;;;;0.52;0.52;;;19.40;45.90;;;23.04;31.68;100377.38;5136584;27;20047;-67
2021/05/27 04:48:27;;;;;;;0.60;0.60;;;19.40;46.20;;;23.01;31.48;100372.28;5117790;28;20089;-67
2021/05/27 04:50:53;;;;;;;0.75;0.50;;;19.40;46.10;;;23.05;31.29;100375.56;5136334;27;20134;-67
2021/05/27 04:53:21;;;;;;;1.60;0.60;;;19.40;46.00;;;23.03;31.55;100377.50;5135385;28;20043;-67
2021/05/27 04:55:47;;;;;;;0.60;0.60;;;19.40;46.00;;;23.11;31.29;100389.28;5134840;28;20074;-67
2021/05/27 04:58:14;;;;;;;0.88;0.70;;;19.40;45.90;;;23.08;31.44;100386.84;5134866;28;20380;-67
2021/05/27 05:00:40;;;;;;;0.77;0.50;;;19.40;45.90;;;23.12;31.16;100390.13;5118025;28;20047;-67
2021/05/27 05:03:06;;;;;;;0.57;0.50;;;19.40;45.90;;;23.12;31.43;100388.31;5100742;28;20470;-67
2021/05/27 05:05:35;;;;;;;0.70;0.60;;;19.40;46.40;;;23.15;31.41;100394.38;5118179;28;20043;-67
2021/05/27 05:08:01;;;;;;;0.88;0.63;;;19.50;45.90;;;23.17;31.17;100390.63;5117479;28;20394;-67
2021/05/27 05:10:28;;;;;;;0.85;0.57;;;19.50;45.90;;;23.15;31.31;100394.38;5117574;28;20099;-67
2021/05/27 05:12:55;;;;;;;0.82;0.50;;;19.50;45.80;;;23.19;31.18;100407.38;5134603;28;20051;-67
2021/05/27 05:15:21;;;;;;;0.85;0.57;;;19.50;45.80;;;23.23;31.35;100406.13;5118214;28;20047;-67
2021/05/27 05:17:53;;;;;;;1.13;0.52;;;19.60;45.80;;;23.23;31.23;100405.31;5117606;28;20078;-67
2021/05/27 05:20:25;;;;;;;0.50;0.50;;;19.50;45.70;;;23.22;31.04;100412.47;5117628;28;20046;-67
2021/05/27 05:22:52;;;;;;;0.77;0.50;;;19.50;45.70;;;23.26;31.29;100423.72;5135192;28;20044;-67
2021/05/27 05:25:19;;;;;;;0.90;0.57;;;19.50;45.70;;;23.26;31.08;100411.25;5100584;28;20044;-67
2021/05/27 05:27:45;;;;;;;0.60;0.60;;;19.60;45.80;;;23.27;31.13;100423.63;5117014;28;20055;-67
2021/05/27 05:30:13;;;;;;;0.60;0.60;;;19.50;45.70;;;23.25;31.02;100420.19;5117329;28;20095;-67
2021/05/27 05:32:39;;;;;;;0.57;0.55;;;19.50;45.70;;;23.27;31.24;100425.41;5117762;28;20393;-67
2021/05/27 05:35:08;;;;;;;0.75;0.40;;;19.60;45.80;;;23.26;31.07;100413.91;5117182;28;20483;-67
2021/05/27 05:37:34;;;;;;;0.43;0.43;;;19.50;45.70;;;23.27;31.01;100418.28;5135563;27;20050;-67
2021/05/27 05:40:00;;;;;;;0.40;0.40;;;19.50;45.70;;;23.31;30.99;100435.72;5100180;28;20051;-67
2021/05/27 05:42:26;;;;;;;0.98;0.60;;;19.60;45.70;;;23.27;31.22;100428.09;5134440;28;20151;-67
2021/05/27 05:44:52;;;;;;;0.57;0.43;;;19.60;45.70;;;23.32;31.11;100433.91;5134218;28;20496;-67
2021/05/27 05:47:17;;;;;;;1.50;0.50;;;19.60;45.70;;;23.31;31.12;100427.72;5134140;28;20411;-66
2021/05/27 05:49:43;;;;;;;0.60;0.60;;;19.60;45.70;;;23.33;31.09;100432.09;5117430;28;20051;-66
2021/05/27 05:52:12;;;;;;;0.73;0.60;;;19.60;45.70;;;23.32;31.14;100431.22;5134021;28;20103;-66
2021/05/27 05:54:40;;;;;;;0.65;0.60;;;19.60;45.70;;;23.31;31.03;100440.22;5099974;28;20051;-66
2021/05/27 05:57:08;;;;;;;0.60;0.60;;;19.60;45.70;;;23.35;31.09;100443.50;5133856;28;20091;-66
2021/05/27 05:59:33;;;;;;;0.60;0.60;;;19.60;45.70;;;23.34;31.17;100447.13;5133796;28;20063;-66
2021/05/27 06:02:03;;;;;;;0.70;0.43;;;19.60;45.70;;;23.35;31.09;100447.00;5116558;28;20146;-66
2021/05/27 06:04:30;;;;;;;0.60;0.60;;;19.60;45.70;;;23.34;31.20;100449.78;5133311;28;20141;-66
2021/05/27 06:07:01;;;;;;;0.50;0.50;;;19.60;45.70;;;23.38;31.07;100457.44;5132896;28;20118;-67
2021/05/27 06:09:27;;;;;;;0.82;0.60;;;19.60;45.70;;;23.41;31.13;100465.22;5116332;28;20071;-66
2021/05/27 06:11:53;;;;;;;0.93;0.68;;;19.70;45.60;;;23.40;31.02;100450.16;5115925;28;20195;-66
2021/05/27 06:14:20;;;;;;;0.47;0.47;;;19.70;45.60;;;23.45;31.05;100455.97;5116027;28;20170;-66
2021/05/27 06:16:46;;;;;;;0.52;0.50;;;19.70;45.50;;;23.49;30.92;100462.78;5116092;28;20047;-66
2021/05/27 06:19:12;;;;;;;1.10;0.70;;;19.80;45.50;;;23.53;31.05;100467.88;5133143;28;20054;-66
2021/05/27 06:21:57;;;;;;;0.50;0.50;;;19.80;45.40;;;23.54;30.85;100467.75;5118696;28;20112;-66
2021/05/27 06:24:38;;;;;;;0.47;0.40;;;19.70;45.30;;;23.56;30.94;100467.66;5118023;28;20047;-66
2021/05/27 06:27:04;;;;;;;0.50;0.50;;;19.80;45.30;;;23.60;30.74;100479.75;5133827;28;20459;-66
2021/05/27 06:29:30;;;;;;;0.60;0.60;;;19.80;45.30;;;23.61;30.65;100473.47;5099115;28;20047;-66
2021/05/27 06:31:56;;;;;;;0.68;0.50;;;19.90;45.20;;;23.66;30.66;100474.78;5133409;28;20076;-66
2021/05/27 06:34:21;;;;;;;0.70;0.60;;;19.90;45.20;;;23.67;30.94;100484.50;5115919;28;20422;-66
2021/05/27 06:36:47;;;;;;;1.08;0.70;;;19.90;45.20;;;23.73;30.62;100495.66;5098756;28;20142;-65
2021/05/27 06:39:13;;;;;;;0.65;0.65;;;19.90;45.10;;;23.73;30.61;100491.16;5133095;28;20066;-66
2021/05/27 06:41:39;;;;;;;0.45;0.45;;;19.90;45.10;;;23.74;30.88;100492.88;5132942;28;20533;-66
2021/05/27 06:44:05;;;;;;;0.50;0.50;;;19.90;45.10;;;23.73;30.51;100495.66;5115955;28;20399;-66
2021/05/27 06:46:30;;;;;;;0.80;0.60;;;19.90;45.10;;;23.71;30.65;100497.63;5115901;28;20059;-65
2021/05/27 06:48:57;;;;;;;0.65;0.65;;;19.90;45.10;;;23.71;30.42;100498.44;5116611;28;20043;-65
2021/05/27 06:51:23;;;;;;;0.90;0.55;;;19.90;45.20;;;23.74;30.73;100505.34;5115701;28;20039;-66
2021/05/27 06:53:50;;;;;;;1.55;0.70;;;19.90;45.10;;;23.70;30.77;100499.41;5133584;28;20053;-65
2021/05/27 06:56:22;;;;;;;0.50;0.50;;;19.90;45.20;;;23.67;30.65;100495.19;5133880;28;20482;-66
2021/05/27 06:58:48;;;;;;;0.60;0.60;;;19.80;45.20;;;23.67;30.47;100505.00;5116234;28;20043;-66
2021/05/27 07:01:14;;;;;;;0.50;0.50;;;19.80;45.20;;;23.63;30.66;100512.41;5115797;28;20141;-65
2021/05/27 07:03:40;;;;;;;0.52;0.45;;;19.80;45.30;;;23.62;30.65;100510.72;5115713;28;20490;-66
2021/05/27 07:06:06;;;;;;;0.50;0.40;;;19.80;45.30;;;23.56;30.66;100497.00;5134153;27;20132;-65
2021/05/27 07:08:32;;;;;;;0.60;0.60;;;19.80;45.30;;;23.57;30.81;100512.91;5133153;28;20085;-65
2021/05/27 07:10:59;;;;;;;1.85;0.50;;;19.80;45.30;;;23.55;30.75;100509.47;5115662;28;20398;-65
2021/05/27 07:13:25;;;;;;;0.50;0.50;;;19.80;45.40;;;23.55;30.73;100505.97;5115555;28;20039;-65
2021/05/27 07:15:50;;;;;;;0.50;0.50;;;19.80;45.40;;;23.59;30.77;100512.75;5115409;28;20092;-65
2021/05/27 07:18:16;;;;;;;0.55;0.55;;;19.80;45.40;;;23.59;30.81;100520.75;5115637;28;20096;-65
2021/05/27 07:20:42;;;;;;;0.47;0.47;;;19.80;45.30;;;23.58;30.90;100522.59;5115459;28;20071;-65
2021/05/27 07:23:09;;;;;;;0.40;0.40;;;19.80;45.30;;;23.60;30.60;100535.81;5115358;28;20039;-66
2021/05/27 07:25:36;;;;;;;0.50;0.50;;;19.70;45.30;;;23.56;30.74;100532.53;5132828;28;20052;-66
2021/05/27 07:28:02;;;;;;;0.60;0.60;;;19.80;45.40;;;23.52;30.82;100522.22;5114815;28;20055;-65
2021/05/27 07:30:29;;;;;;;0.50;0.50;;;19.70;45.40;;;23.55;30.78;100538.84;5132562;28;20047;-65
2021/05/27 07:32:56;;;;;;;0.75;0.50;;;19.70;45.40;;;23.51;30.79;100537.38;5098166;28;20043;-65
2021/05/27 07:35:25;;;;;;;0.70;0.50;;;19.70;45.40;;;23.47;30.81;100538.56;5115849;28;20492;-66
2021/05/27 07:37:51;;;;;;;0.50;0.50;;;19.70;45.40;;;23.52;30.64;100540.88;5098440;28;20093;-65
2021/05/27 07:40:17;;;;;;;0.55;0.50;;;19.70;45.40;;;23.51;30.90;100534.72;5115226;28;20051;-65
2021/05/27 07:42:43;;;;;;;0.40;0.40;;;19.70;45.40;;;23.52;30.64;100540.88;5098048;28;20039;-65
2021/05/27 07:45:08;;;;;;;0.60;0.60;;;19.80;45.40;;;23.57;30.66;100555.59;5115479;28;20039;-65
2021/05/27 07:47:35;;;;;;;1.10;0.50;;;19.80;45.40;;;23.60;30.88;100551.81;5115414;28;20050;-65
2021/05/27 07:50:03;;;;;;;0.80;0.80;;;19.80;45.40;;;23.58;30.67;100545.75;5115123;28;20088;-65
2021/05/27 07:52:28;;;;;;;0.57;0.57;;;19.80;45.30;;;23.63;30.44;100555.09;5098070;28;20040;-65
2021/05/27 07:54:54;;;;;;;1.73;0.60;;;19.90;45.30;;;23.66;30.65;100562.88;5114786;28;20054;-65
2021/05/27 07:57:21;;;;;;;0.77;0.60;;;19.90;45.30;;;23.71;30.55;100569.69;5098048;28;20093;-65
2021/05/27 07:59:49;;;;;;;0.82;0.73;;;19.90;45.20;;;23.72;30.63;100558.03;5114726;28;20077;-65
2021/05/27 08:02:16;;;;;;;0.63;0.63;;;20.00;45.10;;;23.80;30.87;100569.78;5117482;28;20051;-65
2021/05/27 08:04:43;;;;;;;0.43;0.40;;;20.00;45.60;;;23.84;30.63;100571.28;5135967;28;20043;-65
2021/05/27 08:07:10;;;;;;;0.82;0.65;;;20.00;45.00;;;23.84;30.50;100567.78;5136378;28;20039;-65
2021/05/27 08:09:38;;;;;;;0.60;0.60;;;20.10;45.00;;;23.86;30.40;100572.00;5118452;28;20043;-65
2021/05/27 08:12:09;;;;;;;0.70;0.70;;;20.10;45.00;;;23.87;30.33;100572.84;5137179;27;20466;-65
2021/05/27 08:14:38;;;;;;;0.50;0.50;;;20.10;45.00;;;23.89;30.33;100576.28;5101747;28;20070;-65
2021/05/27 08:17:04;;;;;;;0.73;0.60;;;20.10;45.00;;;23.89;30.37;100584.28;5137012;27;20430;-65
2021/05/27 08:19:29;;;;;;;0.50;0.50;;;20.00;44.90;;;23.90;30.46;100587.78;5118021;28;20502;-65
2021/05/27 08:21:55;;;;;;;0.55;0.50;;;20.10;45.00;;;23.94;30.37;100589.25;5118068;28;20043;-65
2021/05/27 08:24:21;;;;;;;0.60;0.60;;;20.00;44.90;;;23.96;30.45;100585.50;5135321;28;20135;-65
2021/05/27 08:26:47;;;;;;;0.93;0.75;;;20.10;44.90;;;23.99;30.41;100584.38;5118007;28;20114;-66
2021/05/27 08:29:13;;;;;;;0.80;0.52;;;20.20;44.80;;;24.07;30.40;100587.28;5117946;28;20051;-65
2021/05/27 08:31:40;;;;;;;0.57;0.57;;;20.30;44.60;;;24.17;30.45;100590.09;5134826;28;20043;-65
2021/05/27 08:34:08;;;;;;;0.47;0.47;;;20.40;44.50;;;24.16;30.19;100586.59;5135153;28;20406;-65
2021/05/27 08:36:34;;;;;;;1.00;0.60;;;20.40;44.40;;;24.16;30.13;100601.78;5117942;28;20051;-65
2021/05/27 08:38:59;;;;;;;0.90;0.70;;;20.40;44.40;;;24.18;30.13;100607.84;5135195;27;20043;-65
2021/05/27 08:41:25;;;;;;;0.52;0.52;;;20.40;44.50;;;24.13;30.18;100599.34;5117860;28;20509;-65
2021/05/27 08:43:51;;;;;;;0.70;0.50;;;20.30;44.50;;;24.15;30.17;100619.59;5135233;28;20402;-65
2021/05/27 08:46:21;;;;;;;1.05;0.60;;;20.30;44.60;;;24.09;30.10;100619.22;5117725;28;20043;-65
2021/05/27 08:48:47;;;;;;;0.73;0.60;;;20.20;44.60;;;24.06;29.98;100612.31;5117840;28;20051;-66
2021/05/27 08:51:13;;;;;;;0.63;0.63;;;20.20;44.70;;;24.03;30.10;100612.56;5118262;28;20050;-65
2021/05/27 08:53:39;;;;;;;0.65;0.60;;;20.20;44.80;;;24.04;30.19;100617.78;5117790;28;20050;-65
2021/05/27 08:56:05;;;;;;;0.50;0.50;;;20.20;44.80;;;24.08;30.33;100629.06;5136209;28;20474;-65
2021/05/27 08:58:31;;;;;;;1.67;0.90;;;20.20;45.30;;;24.11;30.39;100634.19;5136583;27;20043;-65
2021/05/27 09:00:57;;;;;;;0.80;0.70;;;20.30;44.80;;;24.10;30.14;100635.13;5117666;28;20107;-65
2021/05/27 09:03:46;;;;;;;0.90;0.60;;;20.30;44.80;;;24.10;30.23;100631.63;5117603;28;20062;-65
2021/05/27 09:06:12;;;;;;;1.40;0.68;;;20.30;44.70;;;24.14;30.24;100638.41;5117615;28;20050;-65
2021/05/27 09:08:39;;;;;;;1.50;0.93;;;20.30;44.70;;;24.08;30.30;100638.91;5117495;28;20078;-65
2021/05/27 09:11:08;;;;;;;0.80;0.70;;;20.30;44.80;;;24.08;30.29;100645.09;5117425;28;20082;-65
2021/05/27 09:13:36;;;;;;;1.05;0.70;;;20.30;44.80;;;24.05;30.31;100643.50;5133753;27;20050;-65
2021/05/27 09:16:11;;;;;;;0.77;0.63;;;20.30;44.80;;;24.10;30.33;100661.00;5100480;28;20409;-65
2021/05/27 09:18:43;;;;;;;1.67;1.00;;;20.30;44.80;;;24.10;30.21;100664.53;5117505;28;20055;-65
2021/05/27 09:21:12;;;;;;;1.02;0.60;;;20.30;44.80;;;24.12;30.44;100667.91;5117422;28;20058;-65
2021/05/27 09:23:49;;;;;;;0.85;0.70;;;20.30;44.80;;;24.15;30.22;100665.00;5117399;28;20047;-65
2021/05/27 09:26:18;;;;;;;1.88;0.70;;;20.30;44.80;;;24.19;30.05;100662.94;5117388;28;20133;-65
2021/05/27 09:28:46;;;;;;;0.80;0.70;;;20.30;44.70;;;24.20;30.36;100664.66;5116863;28;20051;-65
2021/05/27 09:31:19;;;;;;;0.70;0.70;;;20.40;44.70;;;24.24;30.07;100676.81;5117243;28;20055;-65
2021/05/27 09:33:48;;;;;;;0.70;0.63;;;20.40;44.60;;;24.22;30.20;100671.59;5117169;28;20049;-66
2021/05/27 09:36:23;;;;;;;1.10;0.70;;;20.50;44.60;;;24.29;30.03;100682.66;5134453;28;20092;-66
2021/05/27 09:39:00;;;;;;;0.73;0.60;;;20.50;44.40;;;24.31;30.35;100680.69;5130837;28;20432;-65
2021/05/27 09:41:33;;;;;;;1.17;0.70;;;20.50;44.40;;;24.32;30.16;100677.03;5100043;28;20043;-65
2021/05/27 09:44:02;;;;;;;2.03;0.90;;;20.60;44.30;;;24.41;30.07;100681.66;5134694;28;20039;-65
2021/05/27 09:46:47;;;;;;;0.60;0.60;;;20.70;44.20;;;24.46;30.08;100683.97;5133933;28;20100;-65
2021/05/27 09:49:13;;;;;;;0.88;0.70;;;20.70;44.10;;;24.49;29.94;100688.22;5133744;28;20051;-65
2021/05/27 09:51:39;;;;;;;0.77;0.70;;;20.70;44.00;;;24.50;29.84;100692.59;5133799;28;20047;-66
2021/05/27 09:54:05;;;;;;;1.92;0.80;;;20.70;44.00;;;24.48;29.95;100690.03;5133842;28;20047;-66
2021/05/27 09:56:40;;;;;;;0.60;0.60;;;20.70;44.00;;;24.46;30.03;100696.47;5134332;28;20050;-65
2021/05/27 09:59:11;;;;;;;1.63;0.88;;;20.70;44.10;;;24.46;29.78;100707.16;5135337;27;20487;-65
2021/05/27 10:01:39;;;;;;;1.20;0.68;;;20.70;44.10;;;24.43;29.68;100702.91;5134337;27;20439;-65
2021/05/27 10:04:16;;;;;;;0.70;0.63;;;20.70;44.10;;;24.42;29.65;100707.44;5133716;28;20043;-65
2021/05/27 10:06:43;;;;;;;1.27;0.60;;;20.70;44.00;;;24.44;29.75;100707.31;5134645;27;20126;-65
2021/05/27 10:09:11;;;;;;;0.88;0.60;;;20.70;44.00;;;24.46;29.63;100709.81;5116876;28;20054;-66
2021/05/27 10:11:38;;;;;;;0.55;0.55;;;20.70;43.90;;;24.50;29.87;100714.81;5116304;28;20047;-66
2021/05/27 10:14:05;;;;;;;0.75;0.73;;;20.80;43.90;;;24.54;29.86;100720.75;5116600;28;20550;-65
2021/05/27 10:16:31;;;;;;;1.13;0.70;;;20.80;43.70;;;24.58;29.60;100722.28;5135055;27;20118;-65
2021/05/27 10:18:57;;;;;;;0.77;0.60;;;20.80;43.60;;;24.59;29.48;100719.47;5116511;28;20043;-66
2021/05/27 10:21:25;;;;;;;1.58;0.90;;;20.80;43.50;;;24.63;29.67;100735.28;5133482;28;20047;-66